sensor_id;sensor_type;location;lat;lon;timestamp;P1;durP1;ratioP1;P2;durP2;ratioP2
19780;SDS011;10050;55.492;13.506;2022-12-05T00:01:55;6.00;;;5.07;;
19780;SDS011;10050;55.492;13.506;2022-12-05T00:04:21;5.70;;;4.63;;
19780;SDS011;10050;55.492;13.506;2022-12-05T00:06:47;5.17;;;4.53;;
19780;SDS011;10050;55.492;13.506;2022-12-05T00:09:12;4.87;;;4.10;;
19780;SDS011;10050;55.492;13.506;2022-12-05T00:11:39;4.63;;;4.23;;
19780;SDS011;10050;55.492;13.506;2022-12-05T00:14:07;4.03;;;3.63;;
19780;SDS011;10050;55.492;13.506;2022-12-05T00:16:34;3.70;;;3.10;;
19780;SDS011;10050;55.492;13.506;2022-12-05T00:19:02;4.53;;;3.23;;
19780;SDS011;10050;55.492;13.506;2022-12-05T00:21:32;4.13;;;3.37;;
19780;SDS011;10050;55.492;13.506;2022-12-05T00:23:59;3.07;;;2.60;;
19780;SDS011;10050;55.492;13.506;2022-12-05T00:26:26;3.90;;;2.90;;
19780;SDS011;10050;55.492;13.506;2022-12-05T00:28:52;2.67;;;2.47;;
19780;SDS011;10050;55.492;13.506;2022-12-05T00:31:19;3.23;;;2.20;;
19780;SDS011;10050;55.492;13.506;2022-12-05T00:33:46;2.43;;;2.13;;
19780;SDS011;10050;55.492;13.506;2022-12-05T00:36:13;2.40;;;1.97;;
19780;SDS011;10050;55.492;13.506;2022-12-05T00:38:44;2.20;;;2.00;;
19780;SDS011;10050;55.492;13.506;2022-12-05T00:41:11;2.60;;;2.40;;
19780;SDS011;10050;55.492;13.506;2022-12-05T00:43:39;3.27;;;2.67;;
19780;SDS011;10050;55.492;13.506;2022-12-05T00:46:11;2.63;;;2.43;;
19780;SDS011;10050;55.492;13.506;2022-12-05T00:48:41;3.03;;;2.27;;
19780;SDS011;10050;55.492;13.506;2022-12-05T00:51:08;2.30;;;2.10;;
19780;SDS011;10050;55.492;13.506;2022-12-05T00:53:36;2.80;;;2.60;;
19780;SDS011;10050;55.492;13.506;2022-12-05T00:56:06;3.07;;;2.77;;
19780;SDS011;10050;55.492;13.506;2022-12-05T00:58:33;3.03;;;2.30;;
19780;SDS011;10050;55.492;13.506;2022-12-05T01:01:16;2.50;;;2.27;;
19780;SDS011;10050;55.492;13.506;2022-12-05T01:03:47;2.67;;;2.40;;
19780;SDS011;10050;55.492;13.506;2022-12-05T01:06:15;2.50;;;2.30;;
19780;SDS011;10050;55.492;13.506;2022-12-05T01:08:41;2.20;;;1.97;;
19780;SDS011;10050;55.492;13.506;2022-12-05T01:11:08;2.47;;;1.90;;
19780;SDS011;10050;55.492;13.506;2022-12-05T01:13:35;2.67;;;1.93;;
19780;SDS011;10050;55.492;13.506;2022-12-05T01:16:01;2.00;;;1.77;;
19780;SDS011;10050;55.492;13.506;2022-12-05T01:18:27;1.70;;;1.60;;
19780;SDS011;10050;55.492;13.506;2022-12-05T01:20:53;2.43;;;1.97;;
19780;SDS011;10050;55.492;13.506;2022-12-05T01:23:19;1.43;;;1.33;;
19780;SDS011;10050;55.492;13.506;2022-12-05T01:25:46;1.37;;;1.27;;
19780;SDS011;10050;55.492;13.506;2022-12-05T01:28:13;1.80;;;1.70;;
19780;SDS011;10050;55.492;13.506;2022-12-05T01:30:43;1.60;;;1.50;;
19780;SDS011;10050;55.492;13.506;2022-12-05T01:33:11;1.90;;;1.60;;
19780;SDS011;10050;55.492;13.506;2022-12-05T01:35:38;3.10;;;1.60;;
19780;SDS011;10050;55.492;13.506;2022-12-05T01:38:04;4.33;;;1.80;;
19780;SDS011;10050;55.492;13.506;2022-12-05T01:40:31;5.47;;;1.67;;
19780;SDS011;10050;55.492;13.506;2022-12-05T01:43:00;8.20;;;2.00;;
19780;SDS011;10050;55.492;13.506;2022-12-05T01:48:01;3.30;;;1.60;;
19780;SDS011;10050;55.492;13.506;2022-12-05T01:50:29;5.00;;;1.57;;
19780;SDS011;10050;55.492;13.506;2022-12-05T01:52:57;2.20;;;1.50;;
19780;SDS011;10050;55.492;13.506;2022-12-05T01:55:22;4.83;;;1.67;;
19780;SDS011;10050;55.492;13.506;2022-12-05T01:57:48;4.03;;;1.43;;
19780;SDS011;10050;55.492;13.506;2022-12-05T02:00:15;2.30;;;1.40;;
19780;SDS011;10050;55.492;13.506;2022-12-05T02:02:45;3.17;;;1.20;;
19780;SDS011;10050;55.492;13.506;2022-12-05T02:05:24;2.63;;;1.43;;
19780;SDS011;10050;55.492;13.506;2022-12-05T02:07:53;2.73;;;1.50;;
19780;SDS011;10050;55.492;13.506;2022-12-05T02:10:19;2.73;;;1.10;;
19780;SDS011;10050;55.492;13.506;2022-12-05T02:12:45;4.20;;;1.10;;
19780;SDS011;10050;55.492;13.506;2022-12-05T02:18:11;1.17;;;0.90;;
19780;SDS011;10050;55.492;13.506;2022-12-05T02:31:46;2.57;;;1.00;;
19780;SDS011;10050;55.492;13.506;2022-12-05T02:34:23;3.80;;;1.10;;
19780;SDS011;10050;55.492;13.506;2022-12-05T02:36:58;1.20;;;0.90;;
19780;SDS011;10050;55.492;13.506;2022-12-05T02:42:23;1.57;;;1.03;;
19780;SDS011;10050;55.492;13.506;2022-12-05T02:44:56;1.93;;;0.97;;
19780;SDS011;10050;55.492;13.506;2022-12-05T02:47:28;1.57;;;0.80;;
19780;SDS011;10050;55.492;13.506;2022-12-05T02:49:57;0.50;;;0.50;;
19780;SDS011;10050;55.492;13.506;2022-12-05T02:52:23;0.80;;;0.60;;
19780;SDS011;10050;55.492;13.506;2022-12-05T02:54:50;0.73;;;0.60;;
19780;SDS011;10050;55.492;13.506;2022-12-05T02:57:19;2.43;;;0.60;;
19780;SDS011;10050;55.492;13.506;2022-12-05T02:59:45;0.50;;;0.50;;
19780;SDS011;10050;55.492;13.506;2022-12-05T03:07:51;0.70;;;0.70;;
19780;SDS011;10050;55.492;13.506;2022-12-05T03:10:20;0.63;;;0.63;;
19780;SDS011;10050;55.492;13.506;2022-12-05T03:12:50;3.13;;;0.83;;
19780;SDS011;10050;55.492;13.506;2022-12-05T03:15:22;0.80;;;0.80;;
19780;SDS011;10050;55.492;13.506;2022-12-05T03:20:55;1.97;;;0.90;;
19780;SDS011;10050;55.492;13.506;2022-12-05T03:23:43;3.70;;;0.90;;
19780;SDS011;10050;55.492;13.506;2022-12-05T03:26:17;0.50;;;0.50;;
19780;SDS011;10050;55.492;13.506;2022-12-05T03:29:10;3.37;;;1.10;;
19780;SDS011;10050;55.492;13.506;2022-12-05T03:34:25;1.73;;;0.80;;
19780;SDS011;10050;55.492;13.506;2022-12-05T03:37:10;2.43;;;0.93;;
19780;SDS011;10050;55.492;13.506;2022-12-05T03:39:59;1.80;;;0.80;;
19780;SDS011;10050;55.492;13.506;2022-12-05T03:42:39;2.00;;;1.10;;
19780;SDS011;10050;55.492;13.506;2022-12-05T03:45:17;3.17;;;0.90;;
19780;SDS011;10050;55.492;13.506;2022-12-05T03:50:34;2.63;;;0.90;;
19780;SDS011;10050;55.492;13.506;2022-12-05T03:53:05;2.40;;;0.80;;
19780;SDS011;10050;55.492;13.506;2022-12-05T03:55:36;3.37;;;0.90;;
19780;SDS011;10050;55.492;13.506;2022-12-05T03:58:11;0.50;;;0.50;;
19780;SDS011;10050;55.492;13.506;2022-12-05T04:00:44;2.93;;;0.73;;
19780;SDS011;10050;55.492;13.506;2022-12-05T04:03:17;0.70;;;0.70;;
19780;SDS011;10050;55.492;13.506;2022-12-05T04:05:51;2.00;;;0.70;;
19780;SDS011;10050;55.492;13.506;2022-12-05T04:08:28;1.30;;;0.77;;
19780;SDS011;10050;55.492;13.506;2022-12-05T04:11:09;3.43;;;1.43;;
19780;SDS011;10050;55.492;13.506;2022-12-05T04:13:42;1.30;;;0.50;;
19780;SDS011;10050;55.492;13.506;2022-12-05T04:19:03;1.87;;;0.67;;
19780;SDS011;10050;55.492;13.506;2022-12-05T04:21:35;0.50;;;0.50;;
19780;SDS011;10050;55.492;13.506;2022-12-05T04:24:08;0.60;;;0.60;;
19780;SDS011;10050;55.492;13.506;2022-12-05T04:27:03;3.03;;;0.60;;
19780;SDS011;10050;55.492;13.506;2022-12-05T04:30:01;1.07;;;0.60;;
19780;SDS011;10050;55.492;13.506;2022-12-05T04:32:39;1.80;;;0.60;;
19780;SDS011;10050;55.492;13.506;2022-12-05T04:35:27;0.67;;;0.60;;
19780;SDS011;10050;55.492;13.506;2022-12-05T04:38:01;0.50;;;0.50;;
19780;SDS011;10050;55.492;13.506;2022-12-05T04:40:36;1.50;;;0.50;;
19780;SDS011;10050;55.492;13.506;2022-12-05T04:43:05;0.93;;;0.60;;
19780;SDS011;10050;55.492;13.506;2022-12-05T04:45:34;2.03;;;0.70;;
19780;SDS011;10050;55.492;13.506;2022-12-05T04:48:03;0.70;;;0.70;;
19780;SDS011;10050;55.492;13.506;2022-12-05T04:50:34;0.77;;;0.77;;
19780;SDS011;10050;55.492;13.506;2022-12-05T04:53:02;1.50;;;0.70;;
19780;SDS011;10050;55.492;13.506;2022-12-05T04:55:30;0.60;;;0.60;;
19780;SDS011;10050;55.492;13.506;2022-12-05T05:00:46;0.77;;;0.60;;
19780;SDS011;10050;55.492;13.506;2022-12-05T05:03:24;2.67;;;1.00;;
19780;SDS011;10050;55.492;13.506;2022-12-05T05:05:52;0.93;;;0.70;;
19780;SDS011;10050;55.492;13.506;2022-12-05T05:08:21;0.80;;;0.60;;
19780;SDS011;10050;55.492;13.506;2022-12-05T05:13:52;0.50;;;0.50;;
19780;SDS011;10050;55.492;13.506;2022-12-05T05:16:21;0.77;;;0.70;;
19780;SDS011;10050;55.492;13.506;2022-12-05T05:18:52;0.50;;;0.50;;
19780;SDS011;10050;55.492;13.506;2022-12-05T05:21:22;0.73;;;0.60;;
19780;SDS011;10050;55.492;13.506;2022-12-05T05:23:56;1.23;;;0.43;;
19780;SDS011;10050;55.492;13.506;2022-12-05T05:26:22;0.60;;;0.60;;
19780;SDS011;10050;55.492;13.506;2022-12-05T05:28:49;0.80;;;0.40;;
19780;SDS011;10050;55.492;13.506;2022-12-05T05:31:15;0.70;;;0.70;;
19780;SDS011;10050;55.492;13.506;2022-12-05T05:33:42;0.70;;;0.70;;
19780;SDS011;10050;55.492;13.506;2022-12-05T05:36:10;0.60;;;0.60;;
19780;SDS011;10050;55.492;13.506;2022-12-05T05:38:38;0.53;;;0.53;;
19780;SDS011;10050;55.492;13.506;2022-12-05T05:41:15;0.87;;;0.57;;
19780;SDS011;10050;55.492;13.506;2022-12-05T05:43:42;0.83;;;0.83;;
19780;SDS011;10050;55.492;13.506;2022-12-05T05:46:09;1.33;;;0.50;;
19780;SDS011;10050;55.492;13.506;2022-12-05T05:48:35;0.50;;;0.50;;
19780;SDS011;10050;55.492;13.506;2022-12-05T05:51:01;1.13;;;0.50;;
19780;SDS011;10050;55.492;13.506;2022-12-05T05:53:28;0.50;;;0.50;;
19780;SDS011;10050;55.492;13.506;2022-12-05T05:55:53;0.60;;;0.53;;
19780;SDS011;10050;55.492;13.506;2022-12-05T05:58:19;1.23;;;0.53;;
19780;SDS011;10050;55.492;13.506;2022-12-05T06:00:45;0.50;;;0.50;;
19780;SDS011;10050;55.492;13.506;2022-12-05T06:03:11;0.50;;;0.50;;
19780;SDS011;10050;55.492;13.506;2022-12-05T06:05:37;1.57;;;0.60;;
19780;SDS011;10050;55.492;13.506;2022-12-05T06:08:03;1.30;;;0.60;;
19780;SDS011;10050;55.492;13.506;2022-12-05T06:10:28;0.50;;;0.50;;
19780;SDS011;10050;55.492;13.506;2022-12-05T06:12:55;0.50;;;0.50;;
19780;SDS011;10050;55.492;13.506;2022-12-05T06:15:21;0.53;;;0.53;;
19780;SDS011;10050;55.492;13.506;2022-12-05T06:17:47;1.70;;;0.80;;
19780;SDS011;10050;55.492;13.506;2022-12-05T06:20:13;0.60;;;0.60;;
19780;SDS011;10050;55.492;13.506;2022-12-05T06:22:39;0.63;;;0.63;;
19780;SDS011;10050;55.492;13.506;2022-12-05T06:25:04;0.60;;;0.60;;
19780;SDS011;10050;55.492;13.506;2022-12-05T06:27:31;0.93;;;0.90;;
19780;SDS011;10050;55.492;13.506;2022-12-05T06:29:57;0.70;;;0.70;;
19780;SDS011;10050;55.492;13.506;2022-12-05T06:32:23;0.83;;;0.80;;
19780;SDS011;10050;55.492;13.506;2022-12-05T06:34:49;0.83;;;0.60;;
19780;SDS011;10050;55.492;13.506;2022-12-05T06:37:15;0.60;;;0.60;;
19780;SDS011;10050;55.492;13.506;2022-12-05T06:39:41;3.90;;;0.80;;
19780;SDS011;10050;55.492;13.506;2022-12-05T06:42:06;1.27;;;0.80;;
19780;SDS011;10050;55.492;13.506;2022-12-05T06:44:32;1.03;;;0.67;;
19780;SDS011;10050;55.492;13.506;2022-12-05T06:46:57;1.80;;;0.90;;
19780;SDS011;10050;55.492;13.506;2022-12-05T06:49:23;1.80;;;0.80;;
19780;SDS011;10050;55.492;13.506;2022-12-05T06:51:53;1.37;;;1.13;;
19780;SDS011;10050;55.492;13.506;2022-12-05T06:54:19;1.77;;;1.20;;
19780;SDS011;10050;55.492;13.506;2022-12-05T06:56:45;1.57;;;1.37;;
19780;SDS011;10050;55.492;13.506;2022-12-05T06:59:10;3.50;;;1.23;;
19780;SDS011;10050;55.492;13.506;2022-12-05T07:01:36;1.40;;;1.10;;
19780;SDS011;10050;55.492;13.506;2022-12-05T07:06:51;1.83;;;1.43;;
19780;SDS011;10050;55.492;13.506;2022-12-05T07:09:18;4.50;;;1.57;;
19780;SDS011;10050;55.492;13.506;2022-12-05T07:11:49;1.60;;;1.20;;
19780;SDS011;10050;55.492;13.506;2022-12-05T07:14:15;1.97;;;1.50;;
19780;SDS011;10050;55.492;13.506;2022-12-05T07:16:41;5.27;;;1.53;;
19780;SDS011;10050;55.492;13.506;2022-12-05T07:19:06;5.47;;;1.83;;
19780;SDS011;10050;55.492;13.506;2022-12-05T07:21:32;3.07;;;1.60;;
19780;SDS011;10050;55.492;13.506;2022-12-05T07:23:57;4.20;;;2.60;;
19780;SDS011;10050;55.492;13.506;2022-12-05T07:26:23;4.87;;;2.83;;
19780;SDS011;10050;55.492;13.506;2022-12-05T07:28:49;7.40;;;3.83;;
19780;SDS011;10050;55.492;13.506;2022-12-05T07:31:20;19.20;;;9.50;;
19780;SDS011;10050;55.492;13.506;2022-12-05T07:33:47;25.40;;;12.00;;
19780;SDS011;10050;55.492;13.506;2022-12-05T07:36:14;24.40;;;11.87;;
19780;SDS011;10050;55.492;13.506;2022-12-05T07:38:42;27.43;;;13.33;;
19780;SDS011;10050;55.492;13.506;2022-12-05T07:41:16;28.30;;;13.67;;
19780;SDS011;10050;55.492;13.506;2022-12-05T07:43:45;24.23;;;12.80;;
19780;SDS011;10050;55.492;13.506;2022-12-05T07:46:11;28.97;;;14.10;;
19780;SDS011;10050;55.492;13.506;2022-12-05T07:48:37;32.57;;;14.10;;
19780;SDS011;10050;55.492;13.506;2022-12-05T07:51:04;31.73;;;15.63;;
19780;SDS011;10050;55.492;13.506;2022-12-05T07:53:31;36.70;;;16.07;;
19780;SDS011;10050;55.492;13.506;2022-12-05T07:55:58;40.60;;;17.23;;
19780;SDS011;10050;55.492;13.506;2022-12-05T07:58:25;42.27;;;19.90;;
19780;SDS011;10050;55.492;13.506;2022-12-05T08:00:52;47.73;;;20.73;;
19780;SDS011;10050;55.492;13.506;2022-12-05T08:03:18;42.50;;;20.33;;
19780;SDS011;10050;55.492;13.506;2022-12-05T08:05:43;51.80;;;20.40;;
19780;SDS011;10050;55.492;13.506;2022-12-05T08:08:09;53.20;;;22.83;;
19780;SDS011;10050;55.492;13.506;2022-12-05T08:10:35;46.27;;;20.77;;
19780;SDS011;10050;55.492;13.506;2022-12-05T08:13:00;47.43;;;21.10;;
19780;SDS011;10050;55.492;13.506;2022-12-05T08:15:26;46.70;;;21.73;;
19780;SDS011;10050;55.492;13.506;2022-12-05T08:17:51;54.93;;;23.90;;
19780;SDS011;10050;55.492;13.506;2022-12-05T08:20:17;56.90;;;23.93;;
19780;SDS011;10050;55.492;13.506;2022-12-05T08:22:43;57.97;;;24.53;;
19780;SDS011;10050;55.492;13.506;2022-12-05T08:25:08;51.60;;;22.67;;
19780;SDS011;10050;55.492;13.506;2022-12-05T08:27:34;47.33;;;22.10;;
19780;SDS011;10050;55.492;13.506;2022-12-05T08:30:00;54.90;;;22.60;;
19780;SDS011;10050;55.492;13.506;2022-12-05T08:32:25;52.93;;;22.53;;
19780;SDS011;10050;55.492;13.506;2022-12-05T08:34:51;45.90;;;21.23;;
19780;SDS011;10050;55.492;13.506;2022-12-05T08:37:17;45.50;;;22.30;;
19780;SDS011;10050;55.492;13.506;2022-12-05T08:39:43;58.70;;;22.73;;
19780;SDS011;10050;55.492;13.506;2022-12-05T08:42:08;55.23;;;21.87;;
19780;SDS011;10050;55.492;13.506;2022-12-05T08:44:34;46.83;;;20.87;;
19780;SDS011;10050;55.492;13.506;2022-12-05T08:47:00;54.47;;;21.07;;
19780;SDS011;10050;55.492;13.506;2022-12-05T08:49:25;52.07;;;22.87;;
19780;SDS011;10050;55.492;13.506;2022-12-05T08:51:52;57.27;;;23.77;;
19780;SDS011;10050;55.492;13.506;2022-12-05T08:54:17;53.47;;;21.53;;
19780;SDS011;10050;55.492;13.506;2022-12-05T08:56:43;53.37;;;21.80;;
19780;SDS011;10050;55.492;13.506;2022-12-05T08:59:09;54.87;;;21.73;;
19780;SDS011;10050;55.492;13.506;2022-12-05T09:01:35;56.33;;;22.97;;
19780;SDS011;10050;55.492;13.506;2022-12-05T09:04:03;58.13;;;23.60;;
19780;SDS011;10050;55.492;13.506;2022-12-05T09:06:29;54.87;;;22.93;;
19780;SDS011;10050;55.492;13.506;2022-12-05T09:08:57;58.70;;;22.53;;
19780;SDS011;10050;55.492;13.506;2022-12-05T09:11:28;59.07;;;22.37;;
19780;SDS011;10050;55.492;13.506;2022-12-05T09:13:56;54.67;;;21.30;;
19780;SDS011;10050;55.492;13.506;2022-12-05T09:16:27;57.07;;;21.23;;
19780;SDS011;10050;55.492;13.506;2022-12-05T09:18:54;53.30;;;21.37;;
19780;SDS011;10050;55.492;13.506;2022-12-05T09:21:21;55.13;;;21.83;;
19780;SDS011;10050;55.492;13.506;2022-12-05T09:23:49;52.40;;;21.83;;
19780;SDS011;10050;55.492;13.506;2022-12-05T09:26:16;53.97;;;20.27;;
19780;SDS011;10050;55.492;13.506;2022-12-05T09:28:43;50.47;;;19.60;;
19780;SDS011;10050;55.492;13.506;2022-12-05T09:31:10;52.63;;;20.00;;
19780;SDS011;10050;55.492;13.506;2022-12-05T09:33:41;55.77;;;20.27;;
19780;SDS011;10050;55.492;13.506;2022-12-05T09:36:08;60.53;;;19.33;;
19780;SDS011;10050;55.492;13.506;2022-12-05T09:38:37;57.97;;;20.13;;
19780;SDS011;10050;55.492;13.506;2022-12-05T09:44:38;50.60;;;19.87;;
19780;SDS011;10050;55.492;13.506;2022-12-05T09:47:15;46.93;;;18.43;;
19780;SDS011;10050;55.492;13.506;2022-12-05T09:53:05;55.83;;;20.13;;
19780;SDS011;10050;55.492;13.506;2022-12-05T09:55:45;54.20;;;20.77;;
19780;SDS011;10050;55.492;13.506;2022-12-05T10:00:43;60.70;;;22.23;;
19780;SDS011;10050;55.492;13.506;2022-12-05T10:11:40;62.83;;;21.83;;
19780;SDS011;10050;55.492;13.506;2022-12-05T10:17:04;68.80;;;22.30;;
19780;SDS011;10050;55.492;13.506;2022-12-05T10:19:38;54.60;;;20.13;;
19780;SDS011;10050;55.492;13.506;2022-12-05T10:22:15;60.03;;;20.77;;
19780;SDS011;10050;55.492;13.506;2022-12-05T10:24:58;52.40;;;20.13;;
19780;SDS011;10050;55.492;13.506;2022-12-05T10:27:29;57.40;;;20.40;;
19780;SDS011;10050;55.492;13.506;2022-12-05T10:29:57;57.80;;;20.47;;
19780;SDS011;10050;55.492;13.506;2022-12-05T10:32:31;63.77;;;22.67;;
19780;SDS011;10050;55.492;13.506;2022-12-05T10:35:17;61.00;;;22.53;;
19780;SDS011;10050;55.492;13.506;2022-12-05T10:37:47;54.80;;;20.43;;
19780;SDS011;10050;55.492;13.506;2022-12-05T10:40:21;55.73;;;19.30;;
19780;SDS011;10050;55.492;13.506;2022-12-05T10:42:50;61.47;;;19.77;;
19780;SDS011;10050;55.492;13.506;2022-12-05T10:45:20;55.97;;;19.90;;
19780;SDS011;10050;55.492;13.506;2022-12-05T10:47:48;56.83;;;20.43;;
19780;SDS011;10050;55.492;13.506;2022-12-05T10:53:00;54.47;;;19.13;;
19780;SDS011;10050;55.492;13.506;2022-12-05T10:55:33;54.93;;;20.13;;
19780;SDS011;10050;55.492;13.506;2022-12-05T10:58:08;52.63;;;19.93;;
19780;SDS011;10050;55.492;13.506;2022-12-05T11:00:39;59.37;;;20.43;;
19780;SDS011;10050;55.492;13.506;2022-12-05T11:03:24;55.67;;;21.43;;
19780;SDS011;10050;55.492;13.506;2022-12-05T11:06:26;54.83;;;19.43;;
19780;SDS011;10050;55.492;13.506;2022-12-05T11:08:58;52.97;;;20.50;;
19780;SDS011;10050;55.492;13.506;2022-12-05T11:11:28;55.70;;;19.87;;
19780;SDS011;10050;55.492;13.506;2022-12-05T11:14:04;50.50;;;20.47;;
19780;SDS011;10050;55.492;13.506;2022-12-05T11:16:53;54.40;;;19.73;;
19780;SDS011;10050;55.492;13.506;2022-12-05T11:21:45;55.40;;;20.23;;
19780;SDS011;10050;55.492;13.506;2022-12-05T11:24:26;58.07;;;19.93;;
19780;SDS011;10050;55.492;13.506;2022-12-05T11:26:54;50.23;;;20.23;;
19780;SDS011;10050;55.492;13.506;2022-12-05T11:29:38;52.20;;;19.40;;
19780;SDS011;10050;55.492;13.506;2022-12-05T11:32:08;53.87;;;20.50;;
19780;SDS011;10050;55.492;13.506;2022-12-05T11:37:24;57.70;;;20.73;;
19780;SDS011;10050;55.492;13.506;2022-12-05T11:39:53;57.67;;;21.40;;
19780;SDS011;10050;55.492;13.506;2022-12-05T11:42:25;53.17;;;20.23;;
19780;SDS011;10050;55.492;13.506;2022-12-05T11:44:58;53.67;;;20.37;;
19780;SDS011;10050;55.492;13.506;2022-12-05T11:50:18;53.07;;;19.20;;
19780;SDS011;10050;55.492;13.506;2022-12-05T12:12:05;48.80;;;19.80;;
19780;SDS011;10050;55.492;13.506;2022-12-05T12:17:20;50.07;;;20.73;;
19780;SDS011;10050;55.492;13.506;2022-12-05T12:22:43;51.83;;;19.83;;
19780;SDS011;10050;55.492;13.506;2022-12-05T12:29:32;51.43;;;18.57;;
19780;SDS011;10050;55.492;13.506;2022-12-05T12:31:39;47.03;;;19.57;;
19780;SDS011;10050;55.492;13.506;2022-12-05T12:34:36;47.37;;;18.10;;
19780;SDS011;10050;55.492;13.506;2022-12-05T12:40:20;43.27;;;17.10;;
19780;SDS011;10050;55.492;13.506;2022-12-05T12:45:30;38.03;;;15.33;;
19780;SDS011;10050;55.492;13.506;2022-12-05T12:48:21;43.83;;;15.57;;
19780;SDS011;10050;55.492;13.506;2022-12-05T12:51:05;52.50;;;18.27;;
19780;SDS011;10050;55.492;13.506;2022-12-05T13:04:29;37.17;;;14.77;;
19780;SDS011;10050;55.492;13.506;2022-12-05T13:07:14;42.93;;;16.80;;
19780;SDS011;10050;55.492;13.506;2022-12-05T13:09:48;36.30;;;15.07;;
19780;SDS011;10050;55.492;13.506;2022-12-05T13:12:23;41.63;;;15.67;;
19780;SDS011;10050;55.492;13.506;2022-12-05T13:14:53;38.87;;;15.90;;
19780;SDS011;10050;55.492;13.506;2022-12-05T13:17:24;43.47;;;16.43;;
19780;SDS011;10050;55.492;13.506;2022-12-05T13:19:52;40.10;;;16.20;;
19780;SDS011;10050;55.492;13.506;2022-12-05T13:22:19;46.90;;;16.53;;
19780;SDS011;10050;55.492;13.506;2022-12-05T13:24:49;32.67;;;14.37;;
19780;SDS011;10050;55.492;13.506;2022-12-05T13:27:16;40.40;;;15.60;;
19780;SDS011;10050;55.492;13.506;2022-12-05T13:29:48;37.73;;;15.10;;
19780;SDS011;10050;55.492;13.506;2022-12-05T13:32:26;34.77;;;14.23;;
19780;SDS011;10050;55.492;13.506;2022-12-05T13:34:55;34.97;;;13.43;;
19780;SDS011;10050;55.492;13.506;2022-12-05T13:37:29;33.67;;;14.10;;
19780;SDS011;10050;55.492;13.506;2022-12-05T13:40:32;33.90;;;14.43;;
19780;SDS011;10050;55.492;13.506;2022-12-05T13:43:24;33.37;;;13.57;;
19780;SDS011;10050;55.492;13.506;2022-12-05T13:46:05;31.83;;;14.57;;
19780;SDS011;10050;55.492;13.506;2022-12-05T13:48:35;30.00;;;14.20;;
19780;SDS011;10050;55.492;13.506;2022-12-05T13:53:41;33.23;;;13.90;;
19780;SDS011;10050;55.492;13.506;2022-12-05T14:09:00;36.10;;;15.67;;
19780;SDS011;10050;55.492;13.506;2022-12-05T14:11:27;34.80;;;14.83;;
19780;SDS011;10050;55.492;13.506;2022-12-05T14:13:54;32.87;;;14.80;;
19780;SDS011;10050;55.492;13.506;2022-12-05T14:18:51;31.40;;;13.63;;
19780;SDS011;10050;55.492;13.506;2022-12-05T14:24:10;33.10;;;13.87;;
19780;SDS011;10050;55.492;13.506;2022-12-05T14:26:54;31.07;;;13.67;;
19780;SDS011;10050;55.492;13.506;2022-12-05T14:30:04;31.83;;;13.87;;
19780;SDS011;10050;55.492;13.506;2022-12-05T14:32:51;32.37;;;13.93;;
19780;SDS011;10050;55.492;13.506;2022-12-05T14:35:20;28.90;;;12.47;;
19780;SDS011;10050;55.492;13.506;2022-12-05T14:37:56;32.90;;;13.17;;
19780;SDS011;10050;55.492;13.506;2022-12-05T14:40:29;31.33;;;13.57;;
19780;SDS011;10050;55.492;13.506;2022-12-05T14:43:00;28.83;;;12.27;;
19780;SDS011;10050;55.492;13.506;2022-12-05T14:45:55;26.77;;;12.60;;
19780;SDS011;10050;55.492;13.506;2022-12-05T14:48:33;28.23;;;12.30;;
19780;SDS011;10050;55.492;13.506;2022-12-05T14:54:11;34.83;;;12.33;;
19780;SDS011;10050;55.492;13.506;2022-12-05T14:56:49;27.97;;;12.37;;
19780;SDS011;10050;55.492;13.506;2022-12-05T14:59:22;26.97;;;12.67;;
19780;SDS011;10050;55.492;13.506;2022-12-05T15:01:59;30.73;;;14.47;;
19780;SDS011;10050;55.492;13.506;2022-12-05T15:06:59;37.00;;;14.33;;
19780;SDS011;10050;55.492;13.506;2022-12-05T15:12:37;29.00;;;13.23;;
19780;SDS011;10050;55.492;13.506;2022-12-05T15:31:36;29.37;;;13.10;;
19780;SDS011;10050;55.492;13.506;2022-12-05T15:39:27;29.20;;;11.63;;
19780;SDS011;10050;55.492;13.506;2022-12-05T15:41:54;29.47;;;12.70;;
19780;SDS011;10050;55.492;13.506;2022-12-05T15:44:22;21.23;;;10.90;;
19780;SDS011;10050;55.492;13.506;2022-12-05T15:46:53;29.03;;;12.77;;
19780;SDS011;10050;55.492;13.506;2022-12-05T15:49:26;25.83;;;12.17;;
19780;SDS011;10050;55.492;13.506;2022-12-05T15:52:05;25.20;;;12.07;;
19780;SDS011;10050;55.492;13.506;2022-12-05T15:54:45;29.97;;;12.33;;
19780;SDS011;10050;55.492;13.506;2022-12-05T15:57:13;27.13;;;13.67;;
19780;SDS011;10050;55.492;13.506;2022-12-05T15:59:46;32.70;;;12.57;;
19780;SDS011;10050;55.492;13.506;2022-12-05T16:02:24;27.67;;;13.40;;
19780;SDS011;10050;55.492;13.506;2022-12-05T16:05:00;31.40;;;14.37;;
19780;SDS011;10050;55.492;13.506;2022-12-05T16:10:24;21.73;;;11.20;;
19780;SDS011;10050;55.492;13.506;2022-12-05T16:12:52;31.07;;;13.00;;
19780;SDS011;10050;55.492;13.506;2022-12-05T16:15:22;24.57;;;11.10;;
19780;SDS011;10050;55.492;13.506;2022-12-05T16:17:53;23.67;;;11.03;;
19780;SDS011;10050;55.492;13.506;2022-12-05T16:20:22;24.23;;;10.97;;
19780;SDS011;10050;55.492;13.506;2022-12-05T16:22:53;23.50;;;11.67;;
19780;SDS011;10050;55.492;13.506;2022-12-05T16:25:24;21.43;;;10.77;;
19780;SDS011;10050;55.492;13.506;2022-12-05T16:27:55;26.33;;;9.97;;
19780;SDS011;10050;55.492;13.506;2022-12-05T16:30:24;26.97;;;11.97;;
19780;SDS011;10050;55.492;13.506;2022-12-05T16:32:57;21.87;;;11.30;;
19780;SDS011;10050;55.492;13.506;2022-12-05T16:35:39;26.00;;;11.20;;
19780;SDS011;10050;55.492;13.506;2022-12-05T16:38:10;26.03;;;11.87;;
19780;SDS011;10050;55.492;13.506;2022-12-05T16:45:48;22.50;;;10.80;;
19780;SDS011;10050;55.492;13.506;2022-12-05T16:48:22;24.87;;;12.43;;
19780;SDS011;10050;55.492;13.506;2022-12-05T16:50:49;23.83;;;11.83;;
19780;SDS011;10050;55.492;13.506;2022-12-05T16:53:34;28.17;;;13.43;;
19780;SDS011;10050;55.492;13.506;2022-12-05T16:56:02;23.17;;;11.83;;
19780;SDS011;10050;55.492;13.506;2022-12-05T16:58:48;20.70;;;11.13;;
19780;SDS011;10050;55.492;13.506;2022-12-05T17:01:23;25.90;;;12.37;;
19780;SDS011;10050;55.492;13.506;2022-12-05T17:03:51;36.47;;;17.03;;
19780;SDS011;10050;55.492;13.506;2022-12-05T17:06:18;35.13;;;17.33;;
19780;SDS011;10050;55.492;13.506;2022-12-05T17:08:45;32.73;;;17.77;;
19780;SDS011;10050;55.492;13.506;2022-12-05T17:11:13;29.17;;;16.93;;
19780;SDS011;10050;55.492;13.506;2022-12-05T17:13:53;28.47;;;15.03;;
19780;SDS011;10050;55.492;13.506;2022-12-05T17:16:21;24.10;;;11.47;;
19780;SDS011;10050;55.492;13.506;2022-12-05T17:18:47;24.33;;;11.50;;
19780;SDS011;10050;55.492;13.506;2022-12-05T17:21:16;25.30;;;13.23;;
19780;SDS011;10050;55.492;13.506;2022-12-05T17:23:45;23.63;;;11.80;;
19780;SDS011;10050;55.492;13.506;2022-12-05T17:26:11;26.47;;;12.43;;
19780;SDS011;10050;55.492;13.506;2022-12-05T17:28:38;50.83;;;17.67;;
19780;SDS011;10050;55.492;13.506;2022-12-05T17:31:04;38.30;;;16.23;;
19780;SDS011;10050;55.492;13.506;2022-12-05T17:33:30;62.23;;;23.93;;
19780;SDS011;10050;55.492;13.506;2022-12-05T17:35:56;57.50;;;23.97;;
19780;SDS011;10050;55.492;13.506;2022-12-05T17:38:28;63.60;;;25.90;;
19780;SDS011;10050;55.492;13.506;2022-12-05T17:40:56;30.83;;;17.53;;
19780;SDS011;10050;55.492;13.506;2022-12-05T17:43:22;23.60;;;14.63;;